Time;durP1;ratioP1;P1;durP2;ratioP2;P2;SDS_P1;SDS_P2;PMS_P1;PMS_P2;Temp;Humidity;BMP_temperature;BMP_pressure;BME280_temperature;BME280_humidity;BME280_pressure;Samples;Min_cycle;Max_cycle;Signal;HPM_P1;HPM_P2
2023/05/28 00:05:12;;;;;;;5.80;5.00;;;18.80;24.20;;;;;;10443981;28;20299;-77
2023/05/28 00:10:15;;;;;;;5.77;4.47;;;18.70;24.50;;;;;;10442537;28;20673;-77
2023/05/28 00:15:18;;;;;;;8.33;7.13;;;18.70;24.40;;;;;;10438830;28;20978;-78
2023/05/28 00:20:25;;;;;;;6.30;5.17;;;18.60;24.40;;;;;;10445980;28;20295;-77
2023/05/28 00:25:28;;;;;;;6.23;4.43;;;18.50;24.30;;;;;;10438997;28;20891;-77
2023/05/28 00:30:31;;;;;;;5.23;4.13;;;18.40;24.80;;;;;;10446472;28;20763;-76
2023/05/28 00:35:36;;;;;;;6.57;5.00;;;18.40;24.20;;;;;;10439427;28;20226;-77
2023/05/28 00:40:44;;;;;;;5.17;4.57;;;18.30;24.20;;;;;;10434933;28;20315;-78
2023/05/28 00:45:48;;;;;;;5.47;4.30;;;18.20;24.50;;;;;;10438743;28;20237;-77
2023/05/28 00:50:54;;;;;;;5.73;4.37;;;18.10;24.00;;;;;;10444962;28;20240;-78
2023/05/28 00:55:58;;;;;;;5.90;3.83;;;18.00;24.20;;;;;;10439114;28;20249;-77
2023/05/28 01:01:01;;;;;;;4.93;3.70;;;18.00;24.30;;;;;;10447063;28;20390;-77
2023/05/28 01:06:11;;;;;;;4.00;3.60;;;18.00;24.20;;;;;;10443283;28;20244;-77
2023/05/28 01:11:17;;;;;;;4.53;3.63;;;17.90;25.00;;;;;;10436739;28;20236;-77
2023/05/28 01:16:21;;;;;;;4.10;3.60;;;17.80;24.70;;;;;;10438055;28;20228;-78
2023/05/28 01:21:27;;;;;;;3.60;3.30;;;17.80;25.00;;;;;;10452086;28;20228;-77
2023/05/28 01:26:33;;;;;;;4.53;3.60;;;17.70;24.80;;;;;;10442300;28;20225;-77
2023/05/28 01:31:36;;;;;;;4.03;3.63;;;17.60;24.80;;;;;;10444504;28;20227;-77
2023/05/28 01:36:50;;;;;;;4.33;3.63;;;17.60;24.60;;;;;;10448328;28;20338;-77
2023/05/28 01:48:17;;;;;;;6.00;3.47;;;17.40;25.40;;;;;;10433888;28;20682;-78
2023/05/28 01:53:20;;;;;;;3.50;3.20;;;17.30;24.90;;;;;;10447159;28;20232;-77
2023/05/28 01:58:24;;;;;;;4.73;3.27;;;17.30;24.80;;;;;;10444401;28;20698;-77
2023/05/28 02:03:28;;;;;;;4.77;3.63;;;17.20;24.80;;;;;;10424026;28;20745;-77
2023/05/28 02:08:31;;;;;;;4.13;3.73;;;17.10;25.10;;;;;;10440833;28;20229;-77
2023/05/28 02:13:35;;;;;;;5.73;3.80;;;17.10;25.00;;;;;;10433295;28;20729;-77
2023/05/28 02:18:39;;;;;;;3.87;3.30;;;17.00;25.00;;;;;;10441899;28;20956;-77
2023/05/28 02:23:44;;;;;;;4.27;3.60;;;16.90;25.20;;;;;;10436740;28;20227;-77
2023/05/28 02:28:47;;;;;;;3.70;3.23;;;16.80;25.30;;;;;;10441635;28;20236;-77
2023/05/28 02:33:52;;;;;;;6.30;3.70;;;16.80;25.10;;;;;;10433268;28;20245;-77
2023/05/28 02:38:55;;;;;;;5.07;3.90;;;16.70;25.40;;;;;;10438792;28;20238;-77
2023/05/28 02:43:58;;;;;;;4.83;3.57;;;16.60;25.30;;;;;;10438229;28;20641;-77
2023/05/28 02:49:03;;;;;;;3.93;3.47;;;16.50;25.30;;;;;;10445628;28;20869;-77
2023/05/28 02:54:06;;;;;;;4.47;4.03;;;16.50;25.70;;;;;;10446984;28;20221;-77
2023/05/28 02:59:10;;;;;;;4.67;3.87;;;16.40;25.50;;;;;;10445842;28;20970;-77
2023/05/28 03:04:15;;;;;;;6.77;3.87;;;16.30;25.50;;;;;;10455570;28;20232;-77
2023/05/28 03:09:18;;;;;;;3.93;3.30;;;16.30;25.90;;;;;;10441040;28;20217;-78
2023/05/28 03:14:21;;;;;;;5.33;3.77;;;16.20;25.60;;;;;;10431491;28;22466;-77
2023/05/28 03:19:26;;;;;;;4.20;3.80;;;16.10;25.70;;;;;;10442223;28;20789;-77
2023/05/28 03:24:30;;;;;;;4.47;3.20;;;16.10;26.00;;;;;;10438722;28;20227;-77
2023/05/28 03:29:33;;;;;;;4.43;3.20;;;16.00;25.70;;;;;;10427429;28;20229;-77
2023/05/28 03:34:37;;;;;;;3.50;3.20;;;15.90;25.80;;;;;;10430206;28;20243;-77
2023/05/28 03:39:41;;;;;;;4.27;3.87;;;15.80;26.00;;;;;;10440745;28;20327;-77
2023/05/28 03:44:44;;;;;;;8.07;3.80;;;15.70;25.90;;;;;;10435379;28;20328;-77
2023/05/28 03:49:49;;;;;;;4.40;3.60;;;15.60;26.00;;;;;;10426991;28;20245;-78
2023/05/28 03:54:52;;;;;;;4.47;3.03;;;15.60;26.40;;;;;;10437776;28;20236;-77
2023/05/28 03:59:57;;;;;;;3.83;3.20;;;15.50;26.20;;;;;;10442852;28;20306;-77
2023/05/28 04:05:02;;;;;;;4.00;3.27;;;15.50;26.30;;;;;;10441611;28;20286;-77
2023/05/28 04:10:06;;;;;;;5.10;3.97;;;15.50;26.70;;;;;;10443704;28;20235;-77
2023/05/28 04:15:10;;;;;;;3.60;3.13;;;15.50;26.60;;;;;;10446712;28;20317;-76
2023/05/28 04:20:15;;;;;;;4.60;3.70;;;15.50;26.70;;;;;;10438100;28;20815;-77
2023/05/28 04:25:19;;;;;;;3.80;3.50;;;15.40;27.00;;;;;;10441018;28;20263;-77
2023/05/28 04:30:23;;;;;;;5.77;3.37;;;15.40;26.90;;;;;;10447154;28;20229;-77
2023/05/28 04:35:29;;;;;;;3.80;3.40;;;15.40;27.00;;;;;;10461116;28;20213;-77
2023/05/28 04:40:32;;;;;;;5.90;3.90;;;15.40;27.10;;;;;;10427063;28;20717;-78
2023/05/28 04:45:35;;;;;;;6.47;4.47;;;15.40;27.00;;;;;;10438107;28;20674;-77
2023/05/28 04:50:40;;;;;;;6.47;4.13;;;15.40;27.00;;;;;;10444245;28;20682;-78
2023/05/28 04:55:44;;;;;;;6.40;4.20;;;15.40;27.30;;;;;;10449752;28;20235;-78
2023/05/28 05:00:47;;;;;;;4.90;4.13;;;15.40;27.20;;;;;;10446063;28;20229;-76
2023/05/28 05:05:51;;;;;;;6.73;4.60;;;15.40;27.10;;;;;;10440787;28;20229;-77
2023/05/28 05:10:55;;;;;;;6.10;4.40;;;15.50;27.40;;;;;;10436876;28;20230;-76
2023/05/28 05:15:58;;;;;;;4.93;4.20;;;15.60;27.50;;;;;;10437320;28;20235;-76
2023/05/28 05:21:03;;;;;;;8.50;4.23;;;15.70;27.70;;;;;;10449250;28;20794;-76
2023/05/28 05:26:06;;;;;;;4.87;4.07;;;15.80;28.20;;;;;;10453804;28;20224;-77
2023/05/28 05:31:11;;;;;;;4.93;3.87;;;15.90;27.80;;;;;;10447817;28;20311;-76
2023/05/28 05:36:16;;;;;;;6.10;4.30;;;16.00;27.80;;;;;;10445967;28;20316;-76
2023/05/28 05:41:21;;;;;;;4.60;3.60;;;16.10;28.10;;;;;;10452231;28;20235;-77
2023/05/28 05:46:24;;;;;;;4.80;4.23;;;16.20;28.00;;;;;;10436241;28;20225;-76
2023/05/28 05:51:29;;;;;;;5.17;3.77;;;16.30;28.10;;;;;;10443846;28;20314;-77
2023/05/28 05:56:32;;;;;;;5.03;3.73;;;16.50;29.00;;;;;;10446597;28;20300;-76
2023/05/28 06:01:35;;;;;;;7.30;4.50;;;16.60;28.30;;;;;;10435440;28;20235;-77
2023/05/28 06:06:40;;;;;;;6.70;4.17;;;16.80;28.40;;;;;;10454732;28;20304;-76
2023/05/28 06:11:43;;;;;;;4.80;3.83;;;17.00;28.50;;;;;;10436647;28;20233;-77
2023/05/28 06:16:47;;;;;;;6.60;3.87;;;17.10;28.30;;;;;;10437443;28;20234;-76
2023/05/28 06:21:52;;;;;;;5.43;4.17;;;17.20;28.40;;;;;;10443793;28;20282;-77
2023/05/28 06:26:55;;;;;;;5.63;4.17;;;17.40;28.70;;;;;;10438658;28;20229;-76
2023/05/28 06:31:58;;;;;;;6.00;4.13;;;17.60;28.30;;;;;;10440308;28;20316;-77
2023/05/28 06:37:03;;;;;;;7.37;4.60;;;17.80;28.50;;;;;;10440229;28;20225;-76
2023/05/28 06:42:07;;;;;;;6.33;4.17;;;18.00;28.80;;;;;;10439477;28;20316;-76
2023/05/28 06:47:10;;;;;;;5.37;4.17;;;18.20;28.70;;;;;;10443620;28;20810;-76
2023/05/28 06:52:15;;;;;;;7.77;3.73;;;18.30;28.80;;;;;;10439234;28;20685;-76
2023/05/28 06:57:18;;;;;;;6.27;3.63;;;18.40;28.40;;;;;;10427212;28;20224;-76
2023/05/28 07:02:21;;;;;;;6.23;3.30;;;18.70;28.20;;;;;;10430301;28;20306;-78
2023/05/28 07:07:26;;;;;;;5.97;3.53;;;18.90;27.90;;;;;;10438192;28;20221;-76
2023/05/28 07:12:29;;;;;;;4.57;3.10;;;19.10;27.70;;;;;;10440956;28;20232;-76
2023/05/28 07:17:32;;;;;;;7.23;3.80;;;19.40;27.80;;;;;;10424140;28;20221;-76
2023/05/28 07:22:37;;;;;;;5.03;3.20;;;19.60;27.40;;;;;;10424331;28;20302;-76
2023/05/28 07:27:40;;;;;;;5.47;3.13;;;19.90;27.20;;;;;;10415134;28;20302;-76
2023/05/28 07:32:43;;;;;;;5.90;3.17;;;20.10;27.20;;;;;;10424658;28;20233;-76
2023/05/28 07:37:48;;;;;;;6.80;3.70;;;20.30;27.10;;;;;;10426731;28;20705;-76
2023/05/28 07:42:51;;;;;;;6.03;3.20;;;20.40;26.70;;;;;;10433986;28;20312;-76
2023/05/28 07:47:54;;;;;;;4.63;3.50;;;20.70;26.80;;;;;;10431179;28;20225;-76
2023/05/28 07:53:01;;;;;;;3.90;3.17;;;20.90;26.40;;;;;;10422544;28;20229;-76
2023/05/28 07:58:05;;;;;;;6.57;3.50;;;21.00;26.00;;;;;;10424125;28;20225;-76
2023/05/28 08:03:11;;;;;;;6.27;3.50;;;21.30;26.20;;;;;;10446846;28;20220;-74
2023/05/28 08:08:16;;;;;;;5.37;3.33;;;21.50;26.30;;;;;;10427687;28;20224;-76
2023/05/28 08:13:19;;;;;;;5.53;3.50;;;21.70;26.00;;;;;;10420669;28;20255;-75
2023/05/28 08:18:22;;;;;;;5.40;3.83;;;21.90;25.90;;;;;;10423486;28;20253;-76
2023/05/28 08:23:27;;;;;;;5.00;3.10;;;22.10;25.60;;;;;;10430359;28;20228;-76
2023/05/28 08:28:30;;;;;;;6.07;3.37;;;22.30;25.30;;;;;;10416455;28;20234;-76
2023/05/28 08:33:34;;;;;;;8.33;3.63;;;22.50;25.50;;;;;;10437867;28;20307;-76
2023/05/28 08:38:38;;;;;;;5.33;3.50;;;22.60;25.20;;;;;;10439528;28;20224;-75
2023/05/28 08:43:43;;;;;;;5.10;3.37;;;22.80;25.30;;;;;;10443492;28;20225;-75
2023/05/28 08:48:48;;;;;;;8.43;3.10;;;23.00;24.60;;;;;;10436351;28;20307;-75
2023/05/28 08:53:53;;;;;;;6.93;3.43;;;23.10;25.00;;;;;;10433827;28;20233;-75
2023/05/28 08:58:57;;;;;;;3.73;2.97;;;23.30;23.60;;;;;;10437501;28;20225;-73
2023/05/28 09:04:01;;;;;;;5.17;3.17;;;23.60;24.30;;;;;;10444809;28;20294;-75
2023/05/28 09:09:07;;;;;;;5.93;3.30;;;23.80;24.10;;;;;;10441802;28;20237;-75
2023/05/28 09:14:12;;;;;;;7.00;3.43;;;24.00;23.40;;;;;;10441306;28;20221;-75
2023/05/28 09:19:17;;;;;;;4.90;3.07;;;24.20;23.50;;;;;;10436215;28;20260;-77
2023/05/28 09:24:22;;;;;;;4.27;3.00;;;24.40;23.10;;;;;;10446344;28;20313;-76
2023/05/28 09:29:26;;;;;;;5.10;3.60;;;24.50;23.00;;;;;;10440484;28;20713;-77
2023/05/28 09:34:30;;;;;;;6.97;3.43;;;24.70;23.10;;;;;;10452776;28;20713;-76
2023/05/28 09:39:35;;;;;;;3.97;3.17;;;24.80;22.80;;;;;;10443904;28;20274;-76
2023/05/28 09:44:41;;;;;;;5.50;3.53;;;24.90;22.20;;;;;;10450345;28;20229;-75
2023/05/28 09:49:46;;;;;;;4.47;3.20;;;25.10;22.10;;;;;;10448943;28;21145;-76
2023/05/28 09:54:53;;;;;;;4.67;3.10;;;25.20;22.20;;;;;;10441487;28;20245;-75
2023/05/28 09:59:57;;;;;;;5.97;3.27;;;25.20;21.60;;;;;;10452424;28;20248;-75
2023/05/28 10:05:08;;;;;;;4.07;3.20;;;25.30;22.20;;;;;;10454571;28;20311;-75
2023/05/28 10:10:15;;;;;;;5.83;3.47;;;25.40;20.80;;;;;;10436496;28;20312;-75
2023/05/28 10:15:19;;;;;;;4.77;3.20;;;25.60;21.00;;;;;;10442736;28;20221;-75
2023/05/28 10:20:22;;;;;;;6.10;3.43;;;25.70;21.30;;;;;;10443095;28;20289;-75
2023/05/28 10:25:27;;;;;;;5.03;3.63;;;25.90;21.90;;;;;;10441985;28;20225;-75
2023/05/28 10:30:34;;;;;;;6.27;3.73;;;26.10;20.40;;;;;;10440410;28;20233;-75
2023/05/28 10:35:53;;;;;;;6.30;4.13;;;26.20;20.00;;;;;;10430893;28;20286;-76
2023/05/28 10:41:04;;;;;;;5.83;3.90;;;26.30;19.40;;;;;;10457199;28;20701;-79
2023/05/28 10:46:09;;;;;;;4.13;3.53;;;26.40;19.20;;;;;;10437308;28;21002;-79
2023/05/28 10:51:13;;;;;;;4.37;3.23;;;26.40;19.30;;;;;;10456012;28;21135;-80
2023/05/28 10:56:17;;;;;;;4.30;3.60;;;26.40;19.70;;;;;;10438405;28;20332;-80
2023/05/28 11:01:21;;;;;;;4.73;3.40;;;26.50;19.30;;;;;;10435195;28;20233;-79
2023/05/28 11:06:26;;;;;;;4.10;3.67;;;26.50;19.40;;;;;;10436887;28;20259;-79
2023/05/28 11:11:31;;;;;;;4.40;3.27;;;26.60;19.40;;;;;;10435328;28;20239;-79
2023/05/28 11:16:35;;;;;;;4.93;3.40;;;26.70;19.40;;;;;;10431097;28;20222;-79
2023/05/28 11:21:51;;;;;;;4.10;3.43;;;26.70;19.40;;;;;;10444032;28;20347;-79
2023/05/28 11:26:55;;;;;;;3.80;3.50;;;26.70;18.10;;;;;;10446950;28;20290;-79
2023/05/28 11:31:59;;;;;;;5.07;3.37;;;26.80;18.50;;;;;;10437475;28;20229;-79
2023/05/28 11:37:05;;;;;;;4.23;3.20;;;26.80;18.70;;;;;;10434364;28;20229;-78
2023/05/28 11:42:10;;;;;;;4.90;3.33;;;26.90;18.70;;;;;;10438176;28;20743;-79
2023/05/28 11:47:14;;;;;;;4.30;3.10;;;27.00;17.90;;;;;;10447940;28;20303;-79
2023/05/28 11:52:19;;;;;;;3.40;3.10;;;27.00;18.50;;;;;;10430698;28;20239;-79
2023/05/28 11:57:26;;;;;;;3.53;3.23;;;27.10;18.30;;;;;;10441296;28;20316;-80
2023/05/28 12:02:29;;;;;;;3.90;3.50;;;27.20;17.30;;;;;;10432293;28;20243;-78
2023/05/28 12:07:33;;;;;;;5.40;3.63;;;27.30;17.90;;;;;;10434946;28;20982;-78
2023/05/28 12:12:43;;;;;;;5.47;3.40;;;27.30;17.60;;;;;;10439689;28;20228;-79
2023/05/28 12:17:47;;;;;;;3.70;3.30;;;27.30;17.20;;;;;;10446324;28;20717;-79
2023/05/28 12:23:01;;;;;;;4.83;3.13;;;27.30;17.50;;;;;;10443085;28;20232;-79
2023/05/28 12:28:05;;;;;;;4.53;3.57;;;27.30;16.50;;;;;;10442239;28;20232;-75
2023/05/28 12:33:09;;;;;;;3.80;3.20;;;27.30;16.70;;;;;;10438770;28;20232;-74
2023/05/28 12:38:13;;;;;;;4.83;3.53;;;27.30;17.20;;;;;;10430306;28;20228;-74
2023/05/28 12:43:18;;;;;;;4.23;3.47;;;27.30;17.50;;;;;;10448795;28;20316;-71
2023/05/28 12:48:21;;;;;;;3.87;3.30;;;27.40;16.70;;;;;;10437922;28;20237;-71
2023/05/28 12:53:24;;;;;;;5.30;3.83;;;27.30;16.60;;;;;;10447841;28;20232;-71
2023/05/28 12:58:29;;;;;;;4.47;3.67;;;27.30;16.90;;;;;;10437748;28;20235;-71
2023/05/28 13:03:33;;;;;;;4.63;3.60;;;27.30;16.20;;;;;;10440266;28;20582;-73
2023/05/28 13:08:36;;;;;;;5.57;3.90;;;27.40;16.40;;;;;;10438210;28;20713;-72
2023/05/28 13:13:41;;;;;;;5.80;3.80;;;27.40;16.70;;;;;;10440474;28;20324;-73
2023/05/28 13:18:44;;;;;;;5.20;3.53;;;27.40;16.10;;;;;;10452898;28;20228;-72
2023/05/28 13:23:48;;;;;;;3.70;3.37;;;27.50;16.30;;;;;;10444517;28;20290;-72
2023/05/28 13:28:53;;;;;;;3.80;3.50;;;27.60;16.20;;;;;;10444620;28;20738;-72
2023/05/28 13:33:56;;;;;;;4.13;3.73;;;27.70;15.90;;;;;;10445324;28;20234;-72
2023/05/28 13:39:01;;;;;;;4.40;3.83;;;27.70;15.90;;;;;;10449518;28;20235;-72
2023/05/28 13:44:06;;;;;;;4.87;4.20;;;27.70;16.40;;;;;;10441789;28;20318;-71
2023/05/28 13:49:09;;;;;;;5.00;4.00;;;27.70;15.80;;;;;;10448273;28;20229;-71
2023/05/28 13:54:13;;;;;;;5.53;3.93;;;27.70;15.90;;;;;;10444411;28;20587;-72
2023/05/28 13:59:19;;;;;;;5.17;4.00;;;27.80;15.60;;;;;;10447319;28;20231;-72
2023/05/28 14:04:22;;;;;;;4.50;4.00;;;27.80;14.70;;;;;;10446255;28;20245;-72
2023/05/28 14:09:26;;;;;;;5.13;3.77;;;27.70;15.00;;;;;;10443473;28;20240;-72
2023/05/28 14:14:30;;;;;;;4.73;4.23;;;27.70;15.30;;;;;;10446328;28;20242;-72
2023/05/28 14:19:33;;;;;;;4.20;3.90;;;27.70;14.80;;;;;;10438361;28;20233;-72
2023/05/28 14:24:37;;;;;;;5.77;4.27;;;27.70;15.00;;;;;;10446541;28;20274;-72
2023/05/28 14:29:41;;;;;;;4.97;4.43;;;27.70;14.90;;;;;;10449560;28;20239;-72
2023/05/28 14:34:44;;;;;;;5.73;4.30;;;27.80;14.50;;;;;;10433973;28;20233;-72
2023/05/28 14:39:48;;;;;;;6.13;4.20;;;27.80;14.70;;;;;;10426035;28;20278;-73
2023/05/28 14:44:52;;;;;;;5.13;4.63;;;27.90;14.90;;;;;;10424838;28;20320;-73
2023/05/28 14:49:55;;;;;;;5.47;4.93;;;27.90;14.00;;;;;;10428787;28;20233;-73
2023/05/28 14:54:59;;;;;;;5.77;4.60;;;27.90;14.50;;;;;;10449176;28;20712;-72
2023/05/28 15:00:10;;;;;;;6.60;4.90;;;27.90;14.30;;;;;;10431614;28;20217;-72
2023/05/28 15:05:13;;;;;;;5.23;4.17;;;27.90;13.80;;;;;;10445915;28;20225;-73
2023/05/28 15:10:18;;;;;;;5.53;4.70;;;27.90;14.30;;;;;;10437699;28;20598;-72
2023/05/28 15:15:24;;;;;;;5.77;5.03;;;27.90;13.90;;;;;;10445421;28;20236;-73
2023/05/28 15:20:27;;;;;;;6.40;5.50;;;27.90;13.30;;;;;;10440787;28;20232;-72
2023/05/28 15:25:31;;;;;;;5.67;5.17;;;27.90;13.20;;;;;;10440199;28;20224;-71
2023/05/28 15:30:39;;;;;;;5.33;4.80;;;27.90;13.40;;;;;;10437919;28;20243;-73
2023/05/28 15:35:42;;;;;;;6.10;5.03;;;27.90;13.50;;;;;;10441982;28;20228;-73
2023/05/28 15:40:47;;;;;;;5.80;4.87;;;27.90;13.70;;;;;;10442551;28;20228;-73
2023/05/28 15:45:52;;;;;;;5.70;5.10;;;28.00;13.50;;;;;;10440092;28;20220;-73
2023/05/28 15:50:55;;;;;;;5.53;5.00;;;28.00;13.10;;;;;;10443322;28;20319;-71
2023/05/28 15:55:59;;;;;;;5.77;5.17;;;28.00;13.50;;;;;;10445033;28;20880;-71
2023/05/28 16:01:05;;;;;;;5.07;4.57;;;28.00;13.40;;;;;;10439149;28;20231;-72
2023/05/28 16:06:09;;;;;;;5.30;4.83;;;28.10;13.40;;;;;;10445156;28;20224;-72
2023/05/28 16:11:14;;;;;;;5.87;5.27;;;28.20;13.80;;;;;;10444352;28;20287;-72
2023/05/28 16:16:20;;;;;;;7.20;5.20;;;28.20;13.90;;;;;;10437295;28;20225;-72
2023/05/28 16:21:24;;;;;;;6.10;5.00;;;28.20;13.70;;;;;;10443926;28;20255;-72
2023/05/28 16:26:29;;;;;;;5.97;4.73;;;28.20;14.30;;;;;;10434029;28;20258;-72
2023/05/28 16:31:36;;;;;;;5.17;4.67;;;28.20;13.70;;;;;;10444344;28;20233;-72
2023/05/28 16:37:20;;;;;;;5.40;4.90;;;28.20;13.40;;;;;;10431994;28;20852;-72
2023/05/28 16:42:23;;;;;;;4.73;4.33;;;28.20;13.10;;;;;;10444181;28;20315;-73
2023/05/28 16:47:30;;;;;;;5.27;4.77;;;28.20;13.50;;;;;;10442206;28;20279;-75
2023/05/28 16:52:33;;;;;;;5.67;5.07;;;28.10;13.00;;;;;;10441289;28;20225;-75
2023/05/28 16:57:37;;;;;;;5.50;4.97;;;28.20;13.30;;;;;;10452777;28;20335;-75
2023/05/28 17:02:42;;;;;;;6.13;4.70;;;28.20;13.20;;;;;;10449036;28;20878;-75
2023/05/28 17:07:45;;;;;;;5.30;4.80;;;28.10;13.10;;;;;;10447109;28;20233;-75
2023/05/28 17:12:48;;;;;;;5.80;5.10;;;28.20;13.20;;;;;;10450077;28;20236;-75
2023/05/28 17:17:53;;;;;;;5.40;4.60;;;28.20;13.10;;;;;;10446320;28;20240;-75
2023/05/28 17:22:56;;;;;;;5.87;4.73;;;28.20;12.80;;;;;;10444232;28;20225;-75
2023/05/28 17:27:59;;;;;;;5.50;5.00;;;28.20;12.70;;;;;;10448594;28;20229;-72
2023/05/28 17:33:04;;;;;;;5.40;5.00;;;28.20;12.90;;;;;;10442357;28;20267;-75
2023/05/28 17:38:10;;;;;;;5.10;4.63;;;28.30;12.90;;;;;;10444791;28;20241;-73
2023/05/28 17:43:13;;;;;;;5.07;4.67;;;28.20;12.70;;;;;;10447548;28;20228;-72
2023/05/28 17:48:18;;;;;;;5.27;4.77;;;28.20;13.00;;;;;;10448729;28;20229;-72
2023/05/28 17:53:26;;;;;;;4.47;4.07;;;28.10;12.80;;;;;;10446657;28;20240;-72
2023/05/28 17:58:33;;;;;;;4.93;4.43;;;28.00;13.00;;;;;;10443428;28;20639;-72
2023/05/28 18:03:38;;;;;;;5.20;4.63;;;28.00;13.20;;;;;;10412604;28;20891;-72
2023/05/28 18:08:42;;;;;;;4.93;4.43;;;27.90;13.00;;;;;;10409028;28;20256;-72
2023/05/28 18:13:45;;;;;;;6.40;4.63;;;27.90;13.60;;;;;;10408818;28;20244;-71
2023/05/28 18:18:50;;;;;;;5.10;4.70;;;27.90;13.70;;;;;;10409249;28;20237;-72
2023/05/28 18:23:55;;;;;;;7.13;4.70;;;27.80;14.00;;;;;;10408995;28;20264;-72
2023/05/28 18:28:58;;;;;;;5.03;4.63;;;27.70;14.30;;;;;;10408194;28;20229;-72
2023/05/28 18:34:05;;;;;;;4.73;4.30;;;27.50;14.30;;;;;;10408458;28;20237;-72
2023/05/28 18:39:11;;;;;;;5.37;4.70;;;27.40;14.90;;;;;;10415214;28;20274;-71
2023/05/28 18:44:14;;;;;;;5.07;4.67;;;27.20;15.00;;;;;;10447810;28;20240;-72
2023/05/28 18:49:19;;;;;;;5.13;4.70;;;27.00;15.30;;;;;;10449094;28;20259;-72
2023/05/28 18:54:22;;;;;;;5.73;4.60;;;26.90;15.90;;;;;;10447139;28;20243;-72
2023/05/28 18:59:25;;;;;;;5.50;4.63;;;26.70;15.90;;;;;;10407181;28;20347;-72
2023/05/28 19:04:31;;;;;;;5.20;4.77;;;26.50;16.20;;;;;;10417821;28;20233;-75
2023/05/28 19:09:34;;;;;;;5.07;4.57;;;26.30;16.50;;;;;;10447901;28;20782;-75
2023/05/28 19:14:37;;;;;;;5.20;4.67;;;26.20;16.40;;;;;;10450669;28;20312;-75
2023/05/28 19:19:42;;;;;;;5.33;4.73;;;26.10;16.60;;;;;;10461863;28;20235;-75
2023/05/28 19:24:45;;;;;;;5.27;4.77;;;25.90;16.90;;;;;;10413973;28;20232;-75
2023/05/28 19:29:49;;;;;;;6.33;4.70;;;25.70;16.80;;;;;;10410279;28;20234;-75
2023/05/28 19:34:56;;;;;;;6.97;4.67;;;25.70;17.00;;;;;;10409748;28;20415;-75
2023/05/28 19:39:59;;;;;;;6.37;4.60;;;25.50;17.00;;;;;;10410587;28;20229;-75
2023/05/28 19:45:03;;;;;;;5.37;4.70;;;25.40;17.10;;;;;;10441017;28;20692;-75
2023/05/28 19:50:09;;;;;;;5.43;4.93;;;25.20;17.00;;;;;;10451670;28;20233;-75
2023/05/28 19:55:12;;;;;;;6.73;4.77;;;25.00;17.00;;;;;;10451916;28;20324;-75
2023/05/28 20:00:16;;;;;;;5.13;4.63;;;24.80;17.00;;;;;;10408883;28;20237;-74
2023/05/28 20:05:20;;;;;;;5.20;4.70;;;24.50;17.40;;;;;;10409271;28;20242;-76
2023/05/28 20:10:24;;;;;;;5.33;4.63;;;24.30;18.10;;;;;;10400180;28;20693;-75
2023/05/28 20:15:27;;;;;;;4.97;4.40;;;24.20;18.00;;;;;;10450395;28;20248;-75
2023/05/28 20:20:32;;;;;;;5.20;4.70;;;24.00;17.90;;;;;;10460356;28;20231;-75
2023/05/28 20:25:35;;;;;;;5.00;4.60;;;23.90;17.80;;;;;;10489865;28;20232;-75
2023/05/28 20:30:38;;;;;;;5.23;4.73;;;23.70;17.70;;;;;;10489893;28;20311;-75
2023/05/28 20:35:43;;;;;;;5.17;4.67;;;23.60;17.60;;;;;;10491034;28;20236;-75
2023/05/28 20:40:46;;;;;;;6.10;5.37;;;23.50;18.10;;;;;;10491002;28;20228;-75
2023/05/28 20:45:52;;;;;;;6.63;5.77;;;23.30;18.10;;;;;;10467732;28;20243;-75
2023/05/28 20:50:57;;;;;;;6.60;5.17;;;23.10;18.20;;;;;;10443238;28;20232;-76
2023/05/28 20:56:00;;;;;;;8.33;5.83;;;22.80;18.60;;;;;;10406603;28;20261;-75
2023/05/28 21:01:03;;;;;;;7.67;6.87;;;22.40;18.50;;;;;;10454607;28;20590;-75
2023/05/28 21:06:08;;;;;;;7.27;6.53;;;22.00;18.80;;;;;;10434754;28;20229;-75
2023/05/28 21:11:11;;;;;;;7.83;6.23;;;21.60;19.60;;;;;;10490024;28;20243;-75
2023/05/28 21:16:14;;;;;;;7.57;6.07;;;21.30;19.60;;;;;;10490527;28;20335;-75
2023/05/28 21:21:19;;;;;;;6.47;5.80;;;21.00;19.80;;;;;;10481117;28;20236;-75
2023/05/28 21:26:22;;;;;;;7.37;5.80;;;20.70;20.50;;;;;;10448934;28;20757;-75
2023/05/28 21:31:27;;;;;;;6.67;6.03;;;20.40;20.40;;;;;;10449047;28;20252;-75
2023/05/28 21:36:32;;;;;;;7.17;6.00;;;20.20;21.30;;;;;;10455591;28;20275;-75
2023/05/28 21:41:36;;;;;;;6.13;5.53;;;20.10;21.20;;;;;;10456353;28;20800;-75
2023/05/28 21:46:39;;;;;;;6.00;5.40;;;20.00;20.90;;;;;;10455647;28;20597;-75
2023/05/28 21:51:45;;;;;;;5.93;5.33;;;19.90;21.10;;;;;;10451034;28;20230;-75
2023/05/28 21:56:48;;;;;;;6.03;5.43;;;19.90;21.50;;;;;;10413933;28;20245;-75
2023/05/28 22:01:51;;;;;;;5.53;5.03;;;19.80;21.30;;;;;;10412667;28;20316;-75
2023/05/28 22:06:56;;;;;;;6.57;5.23;;;19.70;21.50;;;;;;10473958;28;20730;-75
2023/05/28 22:11:59;;;;;;;6.33;5.50;;;19.50;22.00;;;;;;10489842;28;20227;-75
2023/05/28 22:17:03;;;;;;;8.27;6.07;;;19.30;21.90;;;;;;10453436;28;20312;-76
2023/05/28 22:22:07;;;;;;;6.93;5.70;;;19.30;22.10;;;;;;10486125;28;20233;-76
2023/05/28 22:27:11;;;;;;;5.77;5.17;;;19.30;22.70;;;;;;10469460;28;20319;-75
2023/05/28 22:32:16;;;;;;;5.90;5.30;;;19.30;22.30;;;;;;10429282;28;20235;-76
2023/05/28 22:37:21;;;;;;;6.17;5.07;;;19.40;22.40;;;;;;10413641;28;20261;-76
2023/05/28 22:42:25;;;;;;;5.57;4.83;;;19.40;22.60;;;;;;10466585;28;20230;-76
2023/05/28 22:47:28;;;;;;;5.30;4.80;;;19.50;22.40;;;;;;10455953;28;20224;-75
2023/05/28 22:52:32;;;;;;;5.23;4.73;;;19.50;22.40;;;;;;10445494;28;20299;-76
2023/05/28 22:57:36;;;;;;;5.40;4.90;;;19.50;22.70;;;;;;10468811;28;20317;-76
2023/05/28 23:02:43;;;;;;;5.07;4.63;;;19.50;22.50;;;;;;10429319;28;20753;-76
2023/05/28 23:07:47;;;;;;;5.80;5.17;;;19.50;22.60;;;;;;10448629;28;20586;-76
2023/05/28 23:12:50;;;;;;;5.17;4.57;;;19.60;22.80;;;;;;10443828;28;20775;-76
2023/05/28 23:17:54;;;;;;;5.37;4.43;;;19.50;22.40;;;;;;10454194;28;20632;-75
2023/05/28 23:22:59;;;;;;;5.47;4.70;;;19.40;22.40;;;;;;10452567;28;20928;-75
2023/05/28 23:28:02;;;;;;;5.10;4.60;;;19.40;23.00;;;;;;10420989;28;20309;-75
2023/05/28 23:33:05;;;;;;;5.70;5.10;;;19.30;22.70;;;;;;10411358;28;20236;-75
2023/05/28 23:38:10;;;;;;;5.07;4.40;;;19.30;22.80;;;;;;10441943;28;20236;-75
2023/05/28 23:43:13;;;;;;;5.23;4.73;;;19.20;23.10;;;;;;10459777;28;20659;-75
2023/05/28 23:48:16;;;;;;;4.93;4.53;;;19.10;22.80;;;;;;10427250;28;20260;-75
2023/05/28 23:53:20;;;;;;;4.57;4.13;;;19.10;23.00;;;;;;10475134;28;20304;-75
2023/05/28 23:58:24;;;;;;;4.57;4.17;;;19.00;23.30;;;;;;10424706;28;20229;-75
